sensor_id;sensor_type;location;lat;lon;timestamp;temperature;humidity
48912;DHT22;34722;52.108;5.044;2022-07-29T00:00:42;16.30;99.90
48912;DHT22;34722;52.108;5.044;2022-07-29T00:03:10;16.20;99.90
48912;DHT22;34722;52.108;5.044;2022-07-29T00:05:38;16.10;1.00
48912;DHT22;34722;52.108;5.044;2022-07-29T00:08:04;16.10;1.00
48912;DHT22;34722;52.108;5.044;2022-07-29T00:10:30;16.10;1.00
48912;DHT22;34722;52.108;5.044;2022-07-29T00:12:55;16.10;1.00
48912;DHT22;34722;52.108;5.044;2022-07-29T00:15:21;16.10;1.00
48912;DHT22;34722;52.108;5.044;2022-07-29T00:17:47;16.10;1.00
48912;DHT22;34722;52.108;5.044;2022-07-29T00:20:13;16.00;1.00
48912;DHT22;34722;52.108;5.044;2022-07-29T00:22:39;16.00;1.00
48912;DHT22;34722;52.108;5.044;2022-07-29T00:25:05;16.00;1.00
48912;DHT22;34722;52.108;5.044;2022-07-29T00:27:35;15.90;1.00
48912;DHT22;34722;52.108;5.044;2022-07-29T00:30:01;15.90;1.00
48912;DHT22;34722;52.108;5.044;2022-07-29T00:32:26;15.90;1.00
48912;DHT22;34722;52.108;5.044;2022-07-29T00:34:52;15.90;1.00
48912;DHT22;34722;52.108;5.044;2022-07-29T00:37:36;15.80;1.00
48912;DHT22;34722;52.108;5.044;2022-07-29T00:40:03;15.80;1.00
48912;DHT22;34722;52.108;5.044;2022-07-29T00:42:29;15.90;1.00
48912;DHT22;34722;52.108;5.044;2022-07-29T00:44:55;15.80;1.00
48912;DHT22;34722;52.108;5.044;2022-07-29T00:47:20;15.80;1.00
48912;DHT22;34722;52.108;5.044;2022-07-29T00:49:46;15.70;1.00
48912;DHT22;34722;52.108;5.044;2022-07-29T00:52:13;15.80;1.00
48912;DHT22;34722;52.108;5.044;2022-07-29T00:54:39;15.70;1.00
48912;DHT22;34722;52.108;5.044;2022-07-29T00:57:07;15.80;1.00
48912;DHT22;34722;52.108;5.044;2022-07-29T00:59:34;15.70;1.00
48912;DHT22;34722;52.108;5.044;2022-07-29T01:02:00;15.80;1.00
48912;DHT22;34722;52.108;5.044;2022-07-29T01:04:26;15.70;1.00
48912;DHT22;34722;52.108;5.044;2022-07-29T01:06:52;15.70;1.00
48912;DHT22;34722;52.108;5.044;2022-07-29T01:09:19;15.70;1.00
48912;DHT22;34722;52.108;5.044;2022-07-29T01:11:46;15.70;1.00
48912;DHT22;34722;52.108;5.044;2022-07-29T01:14:14;15.60;1.00
48912;DHT22;34722;52.108;5.044;2022-07-29T01:17:05;15.60;1.00
48912;DHT22;34722;52.108;5.044;2022-07-29T01:30:15;15.50;1.00
48912;DHT22;34722;52.108;5.044;2022-07-29T01:32:41;15.50;1.00
48912;DHT22;34722;52.108;5.044;2022-07-29T01:35:21;15.50;1.00
48912;DHT22;34722;52.108;5.044;2022-07-29T01:37:50;15.50;1.00
48912;DHT22;34722;52.108;5.044;2022-07-29T01:40:22;15.50;1.00
48912;DHT22;34722;52.108;5.044;2022-07-29T01:42:52;15.50;1.00
48912;DHT22;34722;52.108;5.044;2022-07-29T01:45:43;15.60;1.00
48912;DHT22;34722;52.108;5.044;2022-07-29T01:48:18;15.50;1.00
48912;DHT22;34722;52.108;5.044;2022-07-29T01:50:50;15.50;1.00
48912;DHT22;34722;52.108;5.044;2022-07-29T01:53:39;15.50;1.00
48912;DHT22;34722;52.108;5.044;2022-07-29T01:56:09;15.50;1.00
48912;DHT22;34722;52.108;5.044;2022-07-29T01:58:39;15.50;1.00
48912;DHT22;34722;52.108;5.044;2022-07-29T02:01:06;15.50;1.00
48912;DHT22;34722;52.108;5.044;2022-07-29T02:03:35;15.50;1.00
48912;DHT22;34722;52.108;5.044;2022-07-29T02:06:02;15.50;1.00
48912;DHT22;34722;52.108;5.044;2022-07-29T02:08:30;15.50;1.00
48912;DHT22;34722;52.108;5.044;2022-07-29T02:10:58;15.50;1.00
48912;DHT22;34722;52.108;5.044;2022-07-29T02:13:27;15.50;1.00
48912;DHT22;34722;52.108;5.044;2022-07-29T02:15:54;15.50;1.00
48912;DHT22;34722;52.108;5.044;2022-07-29T02:18:23;15.50;1.00
48912;DHT22;34722;52.108;5.044;2022-07-29T02:20:52;15.50;1.00
48912;DHT22;34722;52.108;5.044;2022-07-29T02:23:23;15.50;1.00
48912;DHT22;34722;52.108;5.044;2022-07-29T02:25:51;15.40;1.00
48912;DHT22;34722;52.108;5.044;2022-07-29T02:28:19;15.40;1.00
48912;DHT22;34722;52.108;5.044;2022-07-29T02:30:49;15.40;1.00
48912;DHT22;34722;52.108;5.044;2022-07-29T02:33:16;15.40;1.00
48912;DHT22;34722;52.108;5.044;2022-07-29T02:35:45;15.40;1.00
48912;DHT22;34722;52.108;5.044;2022-07-29T02:38:14;15.40;1.00
48912;DHT22;34722;52.108;5.044;2022-07-29T02:41:01;15.40;1.00
48912;DHT22;34722;52.108;5.044;2022-07-29T02:43:29;15.40;1.00
48912;DHT22;34722;52.108;5.044;2022-07-29T02:45:56;15.40;1.00
48912;DHT22;34722;52.108;5.044;2022-07-29T02:48:30;15.40;1.00
48912;DHT22;34722;52.108;5.044;2022-07-29T02:51:05;15.40;1.00
48912;DHT22;34722;52.108;5.044;2022-07-29T02:53:33;15.40;1.00
48912;DHT22;34722;52.108;5.044;2022-07-29T02:56:04;15.40;1.00
48912;DHT22;34722;52.108;5.044;2022-07-29T02:58:34;15.40;1.00
48912;DHT22;34722;52.108;5.044;2022-07-29T03:01:08;15.50;1.00
48912;DHT22;34722;52.108;5.044;2022-07-29T03:03:37;15.40;1.00
48912;DHT22;34722;52.108;5.044;2022-07-29T03:06:04;15.40;1.00
48912;DHT22;34722;52.108;5.044;2022-07-29T03:08:32;15.40;1.00
48912;DHT22;34722;52.108;5.044;2022-07-29T03:11:01;15.40;1.00
48912;DHT22;34722;52.108;5.044;2022-07-29T03:13:27;15.40;1.00
48912;DHT22;34722;52.108;5.044;2022-07-29T03:15:55;15.40;1.00
48912;DHT22;34722;52.108;5.044;2022-07-29T03:18:23;15.40;1.00
48912;DHT22;34722;52.108;5.044;2022-07-29T03:20:49;15.30;1.00
48912;DHT22;34722;52.108;5.044;2022-07-29T03:23:19;15.30;1.00
48912;DHT22;34722;52.108;5.044;2022-07-29T03:25:46;15.30;1.00
48912;DHT22;34722;52.108;5.044;2022-07-29T03:28:12;15.30;1.00
48912;DHT22;34722;52.108;5.044;2022-07-29T03:30:38;15.30;1.00
48912;DHT22;34722;52.108;5.044;2022-07-29T03:33:03;15.30;1.00
48912;DHT22;34722;52.108;5.044;2022-07-29T03:35:29;15.30;1.00
48912;DHT22;34722;52.108;5.044;2022-07-29T03:37:57;15.30;1.00
48912;DHT22;34722;52.108;5.044;2022-07-29T03:40:30;15.20;1.00
48912;DHT22;34722;52.108;5.044;2022-07-29T03:42:57;15.20;1.00
48912;DHT22;34722;52.108;5.044;2022-07-29T03:45:25;15.20;1.00
48912;DHT22;34722;52.108;5.044;2022-07-29T03:48:12;15.20;1.00
48912;DHT22;34722;52.108;5.044;2022-07-29T03:50:39;15.20;1.00
48912;DHT22;34722;52.108;5.044;2022-07-29T03:53:05;15.20;1.00
48912;DHT22;34722;52.108;5.044;2022-07-29T03:55:36;15.20;1.00
48912;DHT22;34722;52.108;5.044;2022-07-29T03:58:03;15.20;1.00
48912;DHT22;34722;52.108;5.044;2022-07-29T04:00:30;15.20;1.00
48912;DHT22;34722;52.108;5.044;2022-07-29T04:02:56;15.20;1.00
48912;DHT22;34722;52.108;5.044;2022-07-29T04:05:22;15.20;1.00
48912;DHT22;34722;52.108;5.044;2022-07-29T04:07:48;15.20;1.00
48912;DHT22;34722;52.108;5.044;2022-07-29T04:10:14;15.20;1.00
48912;DHT22;34722;52.108;5.044;2022-07-29T04:12:46;15.20;1.00
48912;DHT22;34722;52.108;5.044;2022-07-29T04:15:12;15.20;1.00
48912;DHT22;34722;52.108;5.044;2022-07-29T04:17:38;15.30;1.00
48912;DHT22;34722;52.108;5.044;2022-07-29T04:20:04;15.30;1.00
48912;DHT22;34722;52.108;5.044;2022-07-29T04:22:30;15.30;1.00
48912;DHT22;34722;52.108;5.044;2022-07-29T04:24:56;15.30;1.00
48912;DHT22;34722;52.108;5.044;2022-07-29T04:27:21;15.30;1.00
48912;DHT22;34722;52.108;5.044;2022-07-29T04:29:47;15.30;1.00
48912;DHT22;34722;52.108;5.044;2022-07-29T04:32:13;15.30;1.00
48912;DHT22;34722;52.108;5.044;2022-07-29T04:34:39;15.30;1.00
48912;DHT22;34722;52.108;5.044;2022-07-29T04:37:04;15.40;1.00
48912;DHT22;34722;52.108;5.044;2022-07-29T04:39:30;15.40;1.00
48912;DHT22;34722;52.108;5.044;2022-07-29T04:41:55;15.50;1.00
48912;DHT22;34722;52.108;5.044;2022-07-29T04:44:21;15.50;1.00
48912;DHT22;34722;52.108;5.044;2022-07-29T04:46:47;15.60;1.00
48912;DHT22;34722;52.108;5.044;2022-07-29T04:49:13;15.60;1.00
48912;DHT22;34722;52.108;5.044;2022-07-29T04:51:38;15.70;1.00
48912;DHT22;34722;52.108;5.044;2022-07-29T04:54:04;15.80;1.00
48912;DHT22;34722;52.108;5.044;2022-07-29T04:56:30;15.80;1.00
48912;DHT22;34722;52.108;5.044;2022-07-29T04:58:55;15.80;1.00
48912;DHT22;34722;52.108;5.044;2022-07-29T05:01:21;15.80;1.00
48912;DHT22;34722;52.108;5.044;2022-07-29T05:03:47;15.80;1.00
48912;DHT22;34722;52.108;5.044;2022-07-29T05:06:13;15.90;1.00
48912;DHT22;34722;52.108;5.044;2022-07-29T05:08:38;15.90;1.00
48912;DHT22;34722;52.108;5.044;2022-07-29T05:11:04;16.00;99.90
48912;DHT22;34722;52.108;5.044;2022-07-29T05:13:30;16.00;99.90
48912;DHT22;34722;52.108;5.044;2022-07-29T05:15:56;16.00;99.90
48912;DHT22;34722;52.108;5.044;2022-07-29T05:18:24;16.00;99.90
48912;DHT22;34722;52.108;5.044;2022-07-29T05:20:50;16.10;99.90
48912;DHT22;34722;52.108;5.044;2022-07-29T05:23:15;16.10;99.90
48912;DHT22;34722;52.108;5.044;2022-07-29T05:25:41;16.10;99.90
48912;DHT22;34722;52.108;5.044;2022-07-29T05:28:07;16.10;99.90
48912;DHT22;34722;52.108;5.044;2022-07-29T05:30:33;16.10;99.90
48912;DHT22;34722;52.108;5.044;2022-07-29T05:32:58;16.00;99.90
48912;DHT22;34722;52.108;5.044;2022-07-29T05:35:24;16.10;99.90
48912;DHT22;34722;52.108;5.044;2022-07-29T05:37:50;16.20;99.90
48912;DHT22;34722;52.108;5.044;2022-07-29T05:40:15;16.20;99.90
48912;DHT22;34722;52.108;5.044;2022-07-29T05:42:42;16.30;1.00
48912;DHT22;34722;52.108;5.044;2022-07-29T05:45:08;16.40;1.00
48912;DHT22;34722;52.108;5.044;2022-07-29T05:47:34;16.60;99.90
48912;DHT22;34722;52.108;5.044;2022-07-29T05:50:00;16.80;1.00
48912;DHT22;34722;52.108;5.044;2022-07-29T05:52:26;17.00;99.40
48912;DHT22;34722;52.108;5.044;2022-07-29T05:54:52;17.30;1.00
48912;DHT22;34722;52.108;5.044;2022-07-29T05:57:19;17.40;99.90
48912;DHT22;34722;52.108;5.044;2022-07-29T05:59:46;17.60;99.90
48912;DHT22;34722;52.108;5.044;2022-07-29T06:02:12;17.80;99.90
48912;DHT22;34722;52.108;5.044;2022-07-29T06:04:38;18.30;1.00
48912;DHT22;34722;52.108;5.044;2022-07-29T06:07:04;19.20;99.90
48912;DHT22;34722;52.108;5.044;2022-07-29T06:09:30;20.20;1.00
48912;DHT22;34722;52.108;5.044;2022-07-29T06:11:56;21.40;99.90
48912;DHT22;34722;52.108;5.044;2022-07-29T06:14:23;22.30;99.90
48912;DHT22;34722;52.108;5.044;2022-07-29T06:16:58;23.20;99.90
48912;DHT22;34722;52.108;5.044;2022-07-29T06:20:16;23.80;90.90
48912;DHT22;34722;52.108;5.044;2022-07-29T06:22:47;24.20;44.90
48912;DHT22;34722;52.108;5.044;2022-07-29T06:25:16;24.90;13.50
48912;DHT22;34722;52.108;5.044;2022-07-29T06:27:50;25.00;1.00
48912;DHT22;34722;52.108;5.044;2022-07-29T06:30:39;24.10;1.00
48912;DHT22;34722;52.108;5.044;2022-07-29T06:40:04;23.30;1.00
48912;DHT22;34722;52.108;5.044;2022-07-29T06:42:56;22.70;1.00
48912;DHT22;34722;52.108;5.044;2022-07-29T06:45:41;22.80;1.00
48912;DHT22;34722;52.108;5.044;2022-07-29T06:51:23;22.00;1.00
48912;DHT22;34722;52.108;5.044;2022-07-29T06:53:50;22.00;1.00
48912;DHT22;34722;52.108;5.044;2022-07-29T06:56:15;22.20;3.70
48912;DHT22;34722;52.108;5.044;2022-07-29T06:58:44;22.60;4.50
48912;DHT22;34722;52.108;5.044;2022-07-29T07:01:11;22.30;4.00
48912;DHT22;34722;52.108;5.044;2022-07-29T07:03:37;22.20;1.00
48912;DHT22;34722;52.108;5.044;2022-07-29T07:06:03;22.10;9.00
48912;DHT22;34722;52.108;5.044;2022-07-29T07:08:29;23.80;1.00
48912;DHT22;34722;52.108;5.044;2022-07-29T07:10:55;24.90;1.00
48912;DHT22;34722;52.108;5.044;2022-07-29T07:13:22;25.20;1.00
48912;DHT22;34722;52.108;5.044;2022-07-29T07:15:48;26.70;1.00
48912;DHT22;34722;52.108;5.044;2022-07-29T07:18:17;28.00;1.00
48912;DHT22;34722;52.108;5.044;2022-07-29T07:20:44;28.50;1.00
48912;DHT22;34722;52.108;5.044;2022-07-29T07:23:10;29.10;1.00
48912;DHT22;34722;52.108;5.044;2022-07-29T07:25:36;29.70;1.00
48912;DHT22;34722;52.108;5.044;2022-07-29T07:28:03;29.10;1.00
48912;DHT22;34722;52.108;5.044;2022-07-29T07:30:28;28.00;1.00
48912;DHT22;34722;52.108;5.044;2022-07-29T07:32:54;26.70;1.00
48912;DHT22;34722;52.108;5.044;2022-07-29T07:35:21;25.70;1.00
48912;DHT22;34722;52.108;5.044;2022-07-29T07:37:46;25.00;1.00
48912;DHT22;34722;52.108;5.044;2022-07-29T07:40:13;26.60;1.00
48912;DHT22;34722;52.108;5.044;2022-07-29T07:42:42;28.50;1.00
48912;DHT22;34722;52.108;5.044;2022-07-29T07:45:08;27.90;1.00
48912;DHT22;34722;52.108;5.044;2022-07-29T07:47:38;28.50;1.00
48912;DHT22;34722;52.108;5.044;2022-07-29T07:50:11;28.00;1.00
48912;DHT22;34722;52.108;5.044;2022-07-29T07:53:10;27.30;1.00
48912;DHT22;34722;52.108;5.044;2022-07-29T07:55:42;26.90;1.00
48912;DHT22;34722;52.108;5.044;2022-07-29T07:58:09;25.60;1.00
48912;DHT22;34722;52.108;5.044;2022-07-29T08:00:45;25.50;1.00
48912;DHT22;34722;52.108;5.044;2022-07-29T08:07:29;26.90;1.00
48912;DHT22;34722;52.108;5.044;2022-07-29T08:09:55;28.80;1.00
48912;DHT22;34722;52.108;5.044;2022-07-29T08:15:44;31.50;1.00
48912;DHT22;34722;52.108;5.044;2022-07-29T08:18:15;32.00;1.00
48912;DHT22;34722;52.108;5.044;2022-07-29T08:20:40;33.40;1.00
48912;DHT22;34722;52.108;5.044;2022-07-29T08:23:09;33.80;1.00
48912;DHT22;34722;52.108;5.044;2022-07-29T08:25:38;33.90;1.00
48912;DHT22;34722;52.108;5.044;2022-07-29T08:28:04;34.10;1.00
48912;DHT22;34722;52.108;5.044;2022-07-29T08:30:30;34.10;1.00
48912;DHT22;34722;52.108;5.044;2022-07-29T08:32:57;33.40;1.00
48912;DHT22;34722;52.108;5.044;2022-07-29T08:35:23;32.30;1.00
48912;DHT22;34722;52.108;5.044;2022-07-29T08:37:50;31.80;1.00
48912;DHT22;34722;52.108;5.044;2022-07-29T08:40:16;31.40;1.00
48912;DHT22;34722;52.108;5.044;2022-07-29T08:42:45;30.80;1.00
48912;DHT22;34722;52.108;5.044;2022-07-29T08:45:10;30.80;1.00
48912;DHT22;34722;52.108;5.044;2022-07-29T08:47:38;30.90;1.00
48912;DHT22;34722;52.108;5.044;2022-07-29T08:50:06;30.80;1.00
48912;DHT22;34722;52.108;5.044;2022-07-29T08:52:35;31.30;1.00
48912;DHT22;34722;52.108;5.044;2022-07-29T08:55:02;32.80;1.00
48912;DHT22;34722;52.108;5.044;2022-07-29T08:57:29;33.10;1.00
48912;DHT22;34722;52.108;5.044;2022-07-29T08:59:57;32.80;1.00
48912;DHT22;34722;52.108;5.044;2022-07-29T09:02:27;32.20;1.00
48912;DHT22;34722;52.108;5.044;2022-07-29T09:04:53;31.90;1.00
48912;DHT22;34722;52.108;5.044;2022-07-29T09:07:19;31.00;1.00
48912;DHT22;34722;52.108;5.044;2022-07-29T09:09:45;30.80;1.00
48912;DHT22;34722;52.108;5.044;2022-07-29T09:12:11;30.80;1.00
48912;DHT22;34722;52.108;5.044;2022-07-29T09:14:38;32.30;1.00
48912;DHT22;34722;52.108;5.044;2022-07-29T09:17:04;32.80;1.00
48912;DHT22;34722;52.108;5.044;2022-07-29T09:19:32;32.90;1.00
48912;DHT22;34722;52.108;5.044;2022-07-29T09:22:02;33.10;1.00
48912;DHT22;34722;52.108;5.044;2022-07-29T09:27:01;33.70;1.00
48912;DHT22;34722;52.108;5.044;2022-07-29T09:29:27;32.90;1.00
48912;DHT22;34722;52.108;5.044;2022-07-29T09:31:54;32.00;1.00
48912;DHT22;34722;52.108;5.044;2022-07-29T09:34:25;31.30;1.00
48912;DHT22;34722;52.108;5.044;2022-07-29T09:36:53;30.90;1.00
48912;DHT22;34722;52.108;5.044;2022-07-29T09:39:37;31.10;1.00
48912;DHT22;34722;52.108;5.044;2022-07-29T09:42:05;30.50;1.00
48912;DHT22;34722;52.108;5.044;2022-07-29T09:44:57;30.50;1.00
48912;DHT22;34722;52.108;5.044;2022-07-29T09:47:41;30.80;1.00
48912;DHT22;34722;52.108;5.044;2022-07-29T09:50:07;31.20;1.00
48912;DHT22;34722;52.108;5.044;2022-07-29T09:52:47;31.00;1.00
48912;DHT22;34722;52.108;5.044;2022-07-29T09:55:13;30.60;1.00
48912;DHT22;34722;52.108;5.044;2022-07-29T09:57:39;29.90;1.00
48912;DHT22;34722;52.108;5.044;2022-07-29T10:00:23;29.00;1.00
48912;DHT22;34722;52.108;5.044;2022-07-29T10:02:50;28.70;1.00
48912;DHT22;34722;52.108;5.044;2022-07-29T10:07:48;29.50;1.00
48912;DHT22;34722;52.108;5.044;2022-07-29T10:12:48;31.10;1.00
48912;DHT22;34722;52.108;5.044;2022-07-29T10:15:15;31.60;1.00
48912;DHT22;34722;52.108;5.044;2022-07-29T10:17:41;31.50;1.00
48912;DHT22;34722;52.108;5.044;2022-07-29T10:20:08;31.60;1.00
48912;DHT22;34722;52.108;5.044;2022-07-29T10:22:34;32.00;1.00
48912;DHT22;34722;52.108;5.044;2022-07-29T10:24:59;32.00;1.00
48912;DHT22;34722;52.108;5.044;2022-07-29T10:27:25;32.40;1.00
48912;DHT22;34722;52.108;5.044;2022-07-29T10:29:51;32.40;1.00
48912;DHT22;34722;52.108;5.044;2022-07-29T10:32:35;31.70;1.00
48912;DHT22;34722;52.108;5.044;2022-07-29T10:44:14;30.40;1.00
48912;DHT22;34722;52.108;5.044;2022-07-29T10:46:41;29.90;1.00
48912;DHT22;34722;52.108;5.044;2022-07-29T10:51:56;30.00;1.00
48912;DHT22;34722;52.108;5.044;2022-07-29T10:54:40;30.20;1.00
48912;DHT22;34722;52.108;5.044;2022-07-29T10:57:19;30.10;1.00
48912;DHT22;34722;52.108;5.044;2022-07-29T11:05:14;32.00;1.00
48912;DHT22;34722;52.108;5.044;2022-07-29T11:10:38;33.20;1.00
48912;DHT22;34722;52.108;5.044;2022-07-29T11:13:03;34.10;1.00
48912;DHT22;34722;52.108;5.044;2022-07-29T11:15:29;35.10;1.00
48912;DHT22;34722;52.108;5.044;2022-07-29T11:18:10;35.40;1.00
48912;DHT22;34722;52.108;5.044;2022-07-29T11:20:41;36.10;1.00
48912;DHT22;34722;52.108;5.044;2022-07-29T11:23:30;36.20;1.00
48912;DHT22;34722;52.108;5.044;2022-07-29T11:29:03;36.30;1.00
48912;DHT22;34722;52.108;5.044;2022-07-29T11:34:29;36.20;1.00
48912;DHT22;34722;52.108;5.044;2022-07-29T11:39:38;35.00;1.00
48912;DHT22;34722;52.108;5.044;2022-07-29T11:47:28;35.60;1.00
48912;DHT22;34722;52.108;5.044;2022-07-29T11:49:58;36.20;1.00
48912;DHT22;34722;52.108;5.044;2022-07-29T11:52:36;36.30;1.00
48912;DHT22;34722;52.108;5.044;2022-07-29T11:55:09;35.60;1.00
48912;DHT22;34722;52.108;5.044;2022-07-29T11:57:35;35.70;1.00
48912;DHT22;34722;52.108;5.044;2022-07-29T12:00:04;36.00;1.00
48912;DHT22;34722;52.108;5.044;2022-07-29T12:02:42;36.00;1.00
48912;DHT22;34722;52.108;5.044;2022-07-29T12:05:09;35.90;1.00
48912;DHT22;34722;52.108;5.044;2022-07-29T12:07:38;36.20;1.00
48912;DHT22;34722;52.108;5.044;2022-07-29T12:10:05;36.00;1.00
48912;DHT22;34722;52.108;5.044;2022-07-29T12:12:31;36.00;1.00
48912;DHT22;34722;52.108;5.044;2022-07-29T12:14:57;36.00;1.00
48912;DHT22;34722;52.108;5.044;2022-07-29T12:17:32;36.00;1.00
48912;DHT22;34722;52.108;5.044;2022-07-29T12:20:00;35.80;1.00
48912;DHT22;34722;52.108;5.044;2022-07-29T12:22:36;35.50;1.00
48912;DHT22;34722;52.108;5.044;2022-07-29T12:25:08;35.30;1.00
48912;DHT22;34722;52.108;5.044;2022-07-29T12:27:36;34.80;1.00
48912;DHT22;34722;52.108;5.044;2022-07-29T12:30:06;34.70;1.00
48912;DHT22;34722;52.108;5.044;2022-07-29T12:32:38;34.80;1.00
48912;DHT22;34722;52.108;5.044;2022-07-29T12:37:40;32.40;1.00
48912;DHT22;34722;52.108;5.044;2022-07-29T12:40:12;32.20;1.00
48912;DHT22;34722;52.108;5.044;2022-07-29T12:42:39;31.60;1.00
48912;DHT22;34722;52.108;5.044;2022-07-29T12:45:05;31.20;1.00
48912;DHT22;34722;52.108;5.044;2022-07-29T12:47:32;30.80;1.00
48912;DHT22;34722;52.108;5.044;2022-07-29T12:50:12;30.50;1.00
48912;DHT22;34722;52.108;5.044;2022-07-29T12:52:40;30.20;1.00
48912;DHT22;34722;52.108;5.044;2022-07-29T12:55:06;29.80;1.00
48912;DHT22;34722;52.108;5.044;2022-07-29T12:57:45;29.60;1.00
48912;DHT22;34722;52.108;5.044;2022-07-29T13:00:12;29.40;1.00
48912;DHT22;34722;52.108;5.044;2022-07-29T13:02:40;29.20;1.00
48912;DHT22;34722;52.108;5.044;2022-07-29T13:05:08;29.00;1.00
48912;DHT22;34722;52.108;5.044;2022-07-29T13:07:44;28.70;1.00
48912;DHT22;34722;52.108;5.044;2022-07-29T13:10:14;28.60;1.00
48912;DHT22;34722;52.108;5.044;2022-07-29T13:13:11;28.60;1.00
48912;DHT22;34722;52.108;5.044;2022-07-29T13:15:42;28.50;1.00
48912;DHT22;34722;52.108;5.044;2022-07-29T13:18:32;28.60;1.00
48912;DHT22;34722;52.108;5.044;2022-07-29T13:21:19;28.60;1.00
48912;DHT22;34722;52.108;5.044;2022-07-29T13:23:45;28.60;1.00
48912;DHT22;34722;52.108;5.044;2022-07-29T13:26:13;28.40;1.00
48912;DHT22;34722;52.108;5.044;2022-07-29T13:28:41;28.20;1.00
48912;DHT22;34722;52.108;5.044;2022-07-29T13:31:07;28.50;1.00
48912;DHT22;34722;52.108;5.044;2022-07-29T13:33:33;28.40;1.00
48912;DHT22;34722;52.108;5.044;2022-07-29T13:35:58;28.40;1.00
48912;DHT22;34722;52.108;5.044;2022-07-29T13:38:24;28.50;1.00
48912;DHT22;34722;52.108;5.044;2022-07-29T13:40:50;28.60;1.00
48912;DHT22;34722;52.108;5.044;2022-07-29T13:43:16;28.50;1.00
48912;DHT22;34722;52.108;5.044;2022-07-29T13:45:41;28.50;1.00
48912;DHT22;34722;52.108;5.044;2022-07-29T13:48:07;28.60;1.00
48912;DHT22;34722;52.108;5.044;2022-07-29T13:50:33;28.60;1.00
48912;DHT22;34722;52.108;5.044;2022-07-29T13:52:59;28.60;1.00
48912;DHT22;34722;52.108;5.044;2022-07-29T13:55:24;28.60;1.00
48912;DHT22;34722;52.108;5.044;2022-07-29T13:57:51;28.60;1.00
48912;DHT22;34722;52.108;5.044;2022-07-29T14:00:17;28.60;1.00
48912;DHT22;34722;52.108;5.044;2022-07-29T14:02:45;28.60;1.00
48912;DHT22;34722;52.108;5.044;2022-07-29T14:05:12;28.50;1.00
48912;DHT22;34722;52.108;5.044;2022-07-29T14:07:38;28.40;1.00
48912;DHT22;34722;52.108;5.044;2022-07-29T14:10:05;28.60;1.00
48912;DHT22;34722;52.108;5.044;2022-07-29T14:12:31;28.50;1.00
48912;DHT22;34722;52.108;5.044;2022-07-29T14:14:56;28.30;1.00
48912;DHT22;34722;52.108;5.044;2022-07-29T14:17:22;28.40;1.00
48912;DHT22;34722;52.108;5.044;2022-07-29T14:19:48;28.10;1.00
48912;DHT22;34722;52.108;5.044;2022-07-29T14:22:14;28.00;1.00
48912;DHT22;34722;52.108;5.044;2022-07-29T14:24:40;28.00;1.00
48912;DHT22;34722;52.108;5.044;2022-07-29T14:27:06;28.20;1.00
48912;DHT22;34722;52.108;5.044;2022-07-29T14:29:33;28.10;1.00
48912;DHT22;34722;52.108;5.044;2022-07-29T14:31:59;28.30;1.00
48912;DHT22;34722;52.108;5.044;2022-07-29T14:34:25;28.20;1.00
48912;DHT22;34722;52.108;5.044;2022-07-29T14:36:51;28.00;1.00
48912;DHT22;34722;52.108;5.044;2022-07-29T14:39:16;28.10;1.00
48912;DHT22;34722;52.108;5.044;2022-07-29T14:41:42;28.10;1.00
48912;DHT22;34722;52.108;5.044;2022-07-29T14:44:08;28.00;1.00
48912;DHT22;34722;52.108;5.044;2022-07-29T14:46:35;27.90;1.00
48912;DHT22;34722;52.108;5.044;2022-07-29T14:49:00;27.80;1.00
48912;DHT22;34722;52.108;5.044;2022-07-29T14:51:26;27.90;1.00
48912;DHT22;34722;52.108;5.044;2022-07-29T14:53:52;27.90;1.00
48912;DHT22;34722;52.108;5.044;2022-07-29T14:56:18;27.70;1.00
48912;DHT22;34722;52.108;5.044;2022-07-29T14:58:43;27.80;1.00
48912;DHT22;34722;52.108;5.044;2022-07-29T15:01:09;27.90;1.00
48912;DHT22;34722;52.108;5.044;2022-07-29T15:03:35;27.80;1.00
48912;DHT22;34722;52.108;5.044;2022-07-29T15:06:00;27.60;1.00
48912;DHT22;34722;52.108;5.044;2022-07-29T15:08:26;27.60;1.00
48912;DHT22;34722;52.108;5.044;2022-07-29T15:10:55;27.50;1.00
48912;DHT22;34722;52.108;5.044;2022-07-29T15:13:22;27.70;1.00
48912;DHT22;34722;52.108;5.044;2022-07-29T15:15:48;27.80;1.00
48912;DHT22;34722;52.108;5.044;2022-07-29T15:18:15;27.80;1.00
48912;DHT22;34722;52.108;5.044;2022-07-29T15:20:43;27.70;1.00
48912;DHT22;34722;52.108;5.044;2022-07-29T15:23:15;27.80;1.00
48912;DHT22;34722;52.108;5.044;2022-07-29T15:25:41;27.80;1.00
48912;DHT22;34722;52.108;5.044;2022-07-29T15:28:06;27.90;1.00
48912;DHT22;34722;52.108;5.044;2022-07-29T15:30:37;27.70;1.00
48912;DHT22;34722;52.108;5.044;2022-07-29T15:33:06;27.50;1.00
48912;DHT22;34722;52.108;5.044;2022-07-29T15:35:33;27.40;1.00
48912;DHT22;34722;52.108;5.044;2022-07-29T15:37:59;27.20;1.00
48912;DHT22;34722;52.108;5.044;2022-07-29T15:40:25;27.20;1.00
48912;DHT22;34722;52.108;5.044;2022-07-29T15:42:50;27.20;1.00
48912;DHT22;34722;52.108;5.044;2022-07-29T15:45:16;27.20;1.00
48912;DHT22;34722;52.108;5.044;2022-07-29T15:47:42;27.30;1.00
48912;DHT22;34722;52.108;5.044;2022-07-29T15:50:08;27.30;1.00
48912;DHT22;34722;52.108;5.044;2022-07-29T15:52:38;27.20;1.00
48912;DHT22;34722;52.108;5.044;2022-07-29T15:55:04;27.20;1.00
48912;DHT22;34722;52.108;5.044;2022-07-29T15:57:30;27.20;1.00
48912;DHT22;34722;52.108;5.044;2022-07-29T15:59:56;27.10;1.00
48912;DHT22;34722;52.108;5.044;2022-07-29T16:02:22;27.20;1.00
48912;DHT22;34722;52.108;5.044;2022-07-29T16:04:48;27.10;1.00
48912;DHT22;34722;52.108;5.044;2022-07-29T16:07:14;26.90;1.00
48912;DHT22;34722;52.108;5.044;2022-07-29T16:09:40;26.80;1.00
48912;DHT22;34722;52.108;5.044;2022-07-29T16:12:05;26.80;1.00
48912;DHT22;34722;52.108;5.044;2022-07-29T16:14:31;26.90;1.00
48912;DHT22;34722;52.108;5.044;2022-07-29T16:16:57;26.80;1.00
48912;DHT22;34722;52.108;5.044;2022-07-29T16:19:23;26.80;1.00
48912;DHT22;34722;52.108;5.044;2022-07-29T16:21:48;26.60;1.00
48912;DHT22;34722;52.108;5.044;2022-07-29T16:24:14;26.40;1.00
48912;DHT22;34722;52.108;5.044;2022-07-29T16:26:39;26.40;1.00
48912;DHT22;34722;52.108;5.044;2022-07-29T16:29:05;26.10;1.00
48912;DHT22;34722;52.108;5.044;2022-07-29T16:31:31;26.00;1.00
48912;DHT22;34722;52.108;5.044;2022-07-29T16:33:56;26.20;1.00
48912;DHT22;34722;52.108;5.044;2022-07-29T16:36:22;26.30;1.00
48912;DHT22;34722;52.108;5.044;2022-07-29T16:38:48;26.30;1.00
48912;DHT22;34722;52.108;5.044;2022-07-29T16:41:19;26.30;1.00
48912;DHT22;34722;52.108;5.044;2022-07-29T16:43:45;26.20;1.00
48912;DHT22;34722;52.108;5.044;2022-07-29T16:46:11;26.10;1.00
48912;DHT22;34722;52.108;5.044;2022-07-29T16:48:36;26.10;1.00
48912;DHT22;34722;52.108;5.044;2022-07-29T16:51:04;26.00;1.00
48912;DHT22;34722;52.108;5.044;2022-07-29T16:53:30;25.90;1.00
48912;DHT22;34722;52.108;5.044;2022-07-29T16:55:56;25.80;1.00
48912;DHT22;34722;52.108;5.044;2022-07-29T16:58:22;25.70;1.00
48912;DHT22;34722;52.108;5.044;2022-07-29T17:00:47;25.70;1.00
48912;DHT22;34722;52.108;5.044;2022-07-29T17:03:13;25.50;1.00
48912;DHT22;34722;52.108;5.044;2022-07-29T17:05:39;25.40;1.00